createdAt,value
2023-05-06T00:00:37.639Z,101605.41
2023-05-06T00:01:39.511Z,101602.81
2023-05-06T00:02:41.986Z,101608.03
2023-05-06T00:03:43.961Z,101616.72
2023-05-06T00:04:45.807Z,101604.56
2023-05-06T00:05:47.600Z,101616.72
2023-05-06T00:06:49.548Z,101615.88
2023-05-06T00:07:51.551Z,101602.81
2023-05-06T00:08:53.479Z,101607.19
2023-05-06T00:09:55.042Z,101605.44
2023-05-06T00:10:56.603Z,101610.69
2023-05-06T00:11:58.516Z,101606.34
2023-05-06T00:13:00.202Z,101608.94
2023-05-06T00:14:03.935Z,101608.94
2023-05-06T00:15:06.058Z,101596.78
2023-05-06T00:16:08.241Z,101603.75
2023-05-06T00:17:10.569Z,101595.06
2023-05-06T00:18:12.442Z,101598.53
2023-05-06T00:19:14.144Z,101609.84
2023-05-06T00:20:15.806Z,101604.66
2023-05-06T00:21:17.503Z,101605.50
2023-05-06T00:22:19.221Z,101605.50
2023-05-06T00:23:20.762Z,101606.34
2023-05-06T00:24:22.436Z,101602.88
2023-05-06T00:25:24.154Z,101604.59
2023-05-06T00:26:25.703Z,101604.59
2023-05-06T00:27:28.620Z,101607.19
2023-05-06T00:28:30.247Z,101604.59
2023-05-06T00:29:31.969Z,101606.34
2023-05-06T00:30:33.890Z,101608.91
2023-05-06T00:31:35.782Z,101605.44
2023-05-06T00:32:37.868Z,101604.56
2023-05-06T00:33:39.806Z,101592.38
2023-05-06T00:34:41.511Z,101596.72
2023-05-06T00:35:43.264Z,101599.34
2023-05-06T00:36:44.941Z,101599.31
2023-05-06T00:37:46.965Z,101601.06
2023-05-06T00:38:49.616Z,101596.72
2023-05-06T00:39:51.228Z,101600.22
2023-05-06T00:40:52.931Z,101599.34
2023-05-06T00:41:59.582Z,101605.41
2023-05-06T00:43:01.226Z,101602.78
2023-05-06T00:44:02.928Z,101591.47
2023-05-06T00:45:06.380Z,101591.47
2023-05-06T00:46:11.413Z,101594.09
2023-05-06T00:47:13.206Z,101598.47
2023-05-06T00:49:18.453Z,101596.75
2023-05-06T00:50:21.821Z,101597.59
2023-05-06T00:51:23.634Z,101594.13
2023-05-06T00:52:26.222Z,101593.25
2023-05-06T00:53:27.984Z,101596.75
2023-05-06T00:54:30.841Z,101609.78
2023-05-06T00:55:32.563Z,101601.09
2023-05-06T00:56:34.936Z,101591.53
2023-05-06T00:57:36.564Z,101593.25
2023-05-06T00:58:38.645Z,101601.97
2023-05-06T00:59:40.391Z,101599.38
2023-05-06T01:00:42.411Z,101593.31
2023-05-06T01:01:44.021Z,101595.91
2023-05-06T01:02:48.040Z,101600.22
2023-05-06T01:03:50.275Z,101601.13
2023-05-06T01:04:52.318Z,101597.63
2023-05-06T01:06:33.269Z,101594.16
2023-05-06T01:07:46.426Z,101601.97
2023-05-06T01:09:31.948Z,101598.50
2023-05-06T01:10:50.040Z,101596.75
2023-05-06T01:12:20.132Z,101594.13
2023-05-06T01:13:28.819Z,101595.00
2023-05-06T01:14:46.662Z,101593.25
2023-05-06T01:15:54.529Z,101591.50
2023-05-06T01:17:03.515Z,101592.38
2023-05-06T01:18:09.233Z,101592.38
2023-05-06T01:19:29.386Z,101589.78
2023-05-06T01:20:33.159Z,101585.44
2023-05-06T01:21:37.945Z,101587.16
2023-05-06T01:22:39.771Z,101586.28
2023-05-06T01:23:52.561Z,101586.28
2023-05-06T01:24:54.122Z,101588.88
2023-05-06T01:25:56.895Z,101596.69
2023-05-06T01:26:58.480Z,101587.16
2023-05-06T01:28:00.767Z,101588.88
2023-05-06T01:29:03.971Z,101581.06
2023-05-06T01:30:06.424Z,101578.44
2023-05-06T01:31:13.953Z,101582.81
2023-05-06T01:32:25.419Z,101586.28
2023-05-06T01:33:37.168Z,101582.81
2023-05-06T01:34:49.709Z,101581.06
2023-05-06T01:36:08.894Z,101581.06
2023-05-06T01:37:28.684Z,101585.41
2023-05-06T01:38:57.012Z,101580.19
2023-05-06T01:40:00.624Z,101586.28
2023-05-06T01:41:02.987Z,101584.56
2023-05-06T01:42:07.300Z,101586.28
2023-05-06T01:43:13.168Z,101581.94
2023-05-06T01:44:17.798Z,101581.06
2023-05-06T01:45:21.769Z,101582.81
2023-05-06T01:46:24.612Z,101585.44
2023-05-06T01:47:26.663Z,101575.88
2023-05-06T01:48:36.484Z,101585.41
2023-05-06T01:49:38.376Z,101585.44
2023-05-06T01:50:40.991Z,101584.56
2023-05-06T01:51:50.806Z,101584.56
2023-05-06T01:53:00.005Z,101588.03
2023-05-06T01:54:02.622Z,101592.41
2023-05-06T01:55:04.785Z,101595.88
2023-05-06T01:56:06.615Z,101591.56
2023-05-06T01:57:08.384Z,101595.91
2023-05-06T01:58:10.083Z,101593.28
2023-05-06T01:59:11.855Z,101600.22
2023-05-06T02:00:13.599Z,101596.75
2023-05-06T02:01:15.598Z,101595.00
2023-05-06T02:02:17.969Z,101595.91
2023-05-06T02:03:20.332Z,101592.41
2023-05-06T02:04:25.914Z,101601.13
2023-05-06T02:05:28.086Z,101590.69
2023-05-06T02:06:32.382Z,101593.31
2023-05-06T02:07:34.463Z,101600.28
2023-05-06T02:08:36.093Z,101599.38
2023-05-06T02:09:38.936Z,101601.13
2023-05-06T02:10:40.902Z,101607.25
2023-05-06T02:11:45.973Z,101606.34
2023-05-06T02:12:49.000Z,101595.06
2023-05-06T02:13:50.952Z,101598.53
2023-05-06T02:14:53.400Z,101592.47
2023-05-06T02:15:56.644Z,101590.72
2023-05-06T02:17:03.748Z,101599.44
2023-05-06T02:18:05.979Z,101597.69
2023-05-06T02:19:08.112Z,101588.94
2023-05-06T02:20:10.353Z,101600.28
2023-05-06T02:21:12.039Z,101599.38
2023-05-06T02:22:13.946Z,101597.66
2023-05-06T02:23:15.812Z,101595.06
2023-05-06T02:24:18.010Z,101594.16
2023-05-06T02:25:20.089Z,101594.16
2023-05-06T02:26:21.688Z,101588.94
2023-05-06T02:27:23.882Z,101593.31
2023-05-06T02:28:25.911Z,101596.78
2023-05-06T02:29:27.827Z,101595.94
2023-05-06T02:30:31.064Z,101601.13
2023-05-06T02:31:33.185Z,101594.16
2023-05-06T02:32:36.135Z,101591.56
2023-05-06T02:33:38.746Z,101596.81
2023-05-06T02:34:40.566Z,101595.94
2023-05-06T02:35:42.703Z,101599.41
2023-05-06T02:36:47.360Z,101590.69
2023-05-06T02:37:50.422Z,101598.53
2023-05-06T02:38:52.879Z,101605.44
2023-05-06T02:39:54.692Z,101596.75
2023-05-06T02:40:56.537Z,101597.63
2023-05-06T02:41:58.496Z,101591.53
2023-05-06T02:43:00.591Z,101595.88
2023-05-06T02:44:03.006Z,101586.31
2023-05-06T02:45:06.953Z,101597.63
2023-05-06T02:46:08.945Z,101601.09
2023-05-06T02:47:10.911Z,101592.41
2023-05-06T02:48:13.174Z,101594.16
2023-05-06T02:49:18.902Z,101597.63
2023-05-06T02:50:21.196Z,101591.53
2023-05-06T02:51:23.723Z,101594.16
2023-05-06T02:52:25.574Z,101597.59
2023-05-06T02:53:27.446Z,101593.25
2023-05-06T02:54:29.164Z,101591.53
2023-05-06T02:55:30.845Z,101597.63
2023-05-06T02:56:35.330Z,101601.06
2023-05-06T02:57:37.225Z,101595.84
2023-05-06T02:58:38.800Z,101592.38
2023-05-06T02:59:40.583Z,101596.75
2023-05-06T03:00:42.312Z,101588.94
2023-05-06T03:01:44.176Z,101592.38
2023-05-06T03:02:45.998Z,101591.53
2023-05-06T03:03:48.673Z,101592.38
2023-05-06T03:04:50.958Z,101584.56
2023-05-06T03:05:53.007Z,101588.88
2023-05-06T03:06:54.913Z,101587.16
2023-05-06T03:07:56.810Z,101583.66
2023-05-06T03:08:58.608Z,101585.44
2023-05-06T03:10:01.380Z,101583.72
2023-05-06T03:11:08.227Z,101589.78
2023-05-06T03:12:11.917Z,101589.78
2023-05-06T03:13:15.005Z,101582.81
2023-05-06T03:14:16.846Z,101583.66
2023-05-06T03:15:18.839Z,101583.66
2023-05-06T03:16:20.585Z,101588.88
2023-05-06T03:17:25.981Z,101588.03
2023-05-06T03:18:30.919Z,101585.41
2023-05-06T03:19:34.819Z,101580.19
2023-05-06T03:20:36.915Z,101587.13
2023-05-06T03:21:39.093Z,101582.81
2023-05-06T03:22:42.546Z,101582.78
2023-05-06T03:23:51.830Z,101583.66
2023-05-06T03:24:58.824Z,101578.44
2023-05-06T03:26:05.506Z,101586.28
2023-05-06T03:27:08.603Z,101584.50
2023-05-06T03:28:11.759Z,101581.91
2023-05-06T03:29:14.945Z,101584.50
2023-05-06T03:30:18.862Z,101577.53
2023-05-06T03:31:22.186Z,101579.28
2023-05-06T03:32:24.008Z,101577.53
2023-05-06T03:33:26.836Z,101580.13
2023-05-06T03:34:29.001Z,101581.91
2023-05-06T03:35:31.259Z,101575.81
2023-05-06T03:36:35.596Z,101577.56
2023-05-06T03:37:37.335Z,101581.03
2023-05-06T03:38:39.743Z,101578.44
2023-05-06T03:39:43.303Z,101581.03
2023-05-06T03:40:45.094Z,101577.59
2023-05-06T03:41:48.623Z,101582.81
2023-05-06T03:42:50.904Z,101576.75
2023-05-06T03:43:54.196Z,101573.25
2023-05-06T03:44:58.122Z,101575.84
2023-05-06T03:46:00.284Z,101570.63
2023-05-06T03:47:01.884Z,101581.06
2023-05-06T03:48:06.424Z,101577.59
2023-05-06T03:49:10.528Z,101568.00
2023-05-06T03:50:13.026Z,101569.72
2023-05-06T03:51:15.652Z,101574.06
2023-05-06T03:52:18.087Z,101572.31
2023-05-06T03:53:20.042Z,101567.09
2023-05-06T03:54:23.445Z,101569.69
2023-05-06T03:55:25.038Z,101571.44
2023-05-06T03:56:26.764Z,101569.69
2023-05-06T03:57:30.549Z,101567.06
2023-05-06T03:58:32.757Z,101575.75
2023-05-06T03:59:35.471Z,101569.69
2023-05-06T04:00:38.921Z,101566.19
2023-05-06T04:01:42.065Z,101568.84
2023-05-06T04:02:45.052Z,101574.06
2023-05-06T04:03:54.722Z,101564.47
2023-05-06T04:04:58.048Z,101567.09
2023-05-06T04:05:59.806Z,101567.94
2023-05-06T04:07:03.771Z,101567.09
2023-05-06T04:08:05.720Z,101573.16
2023-05-06T04:09:07.684Z,101569.69
2023-05-06T04:10:11.972Z,101568.84
2023-05-06T04:11:15.821Z,101574.91
2023-05-06T04:12:17.584Z,101567.94
2023-05-06T04:13:20.627Z,101572.28
2023-05-06T04:14:22.717Z,101573.16
2023-05-06T04:15:24.579Z,101573.16
2023-05-06T04:16:26.666Z,101572.31
2023-05-06T04:17:28.459Z,101579.28
2023-05-06T04:18:30.649Z,101573.16
2023-05-06T04:19:40.097Z,101568.84
2023-05-06T04:20:41.703Z,101574.06
2023-05-06T04:21:43.698Z,101569.72
2023-05-06T04:22:46.859Z,101573.22
2023-05-06T04:23:49.170Z,101574.06
2023-05-06T04:24:55.298Z,101580.13
2023-05-06T04:25:57.857Z,101569.69
2023-05-06T04:27:02.480Z,101579.25
2023-05-06T04:28:04.547Z,101575.75
2023-05-06T04:29:07.035Z,101573.16
2023-05-06T04:30:14.788Z,101584.44
2023-05-06T04:31:16.678Z,101580.13
2023-05-06T04:32:21.555Z,101572.28
2023-05-06T04:33:25.050Z,101578.38
2023-05-06T04:34:28.879Z,101579.22
2023-05-06T04:35:34.397Z,101580.13
2023-05-06T04:36:37.984Z,101587.09
2023-05-06T04:38:07.221Z,101580.97
2023-05-06T04:39:10.494Z,101586.19
2023-05-06T04:40:13.915Z,101587.03
2023-05-06T04:41:18.035Z,101581.81
2023-05-06T04:42:21.981Z,101589.69
2023-05-06T04:43:31.138Z,101591.41
2023-05-06T04:44:41.908Z,101583.56
2023-05-06T04:45:50.994Z,101588.78
2023-05-06T04:46:57.227Z,101588.78
2023-05-06T04:47:58.973Z,101585.28
2023-05-06T04:49:00.734Z,101604.41
2023-05-06T04:50:02.729Z,101596.53
2023-05-06T04:51:05.666Z,101597.44
2023-05-06T04:52:08.390Z,101596.56
2023-05-06T04:53:10.592Z,101588.75
2023-05-06T04:54:12.377Z,101604.41
2023-05-06T04:55:15.377Z,101587.00
2023-05-06T04:56:22.590Z,101604.41
2023-05-06T04:57:24.951Z,101606.09
2023-05-06T04:58:28.803Z,101593.97
2023-05-06T04:59:31.911Z,101601.78
2023-05-06T05:00:35.477Z,101611.31
2023-05-06T05:01:38.958Z,101605.25
2023-05-06T05:02:40.705Z,101609.59
2023-05-06T05:03:46.249Z,101606.13
2023-05-06T05:04:48.679Z,101613.06
2023-05-06T05:05:50.788Z,101605.25
2023-05-06T05:06:54.900Z,101605.25
2023-05-06T05:07:56.630Z,101610.47
2023-05-06T05:09:00.186Z,101609.56
2023-05-06T05:10:02.981Z,101609.56
2023-05-06T05:11:07.083Z,101613.94
2023-05-06T05:12:09.855Z,101611.34
2023-05-06T05:13:15.523Z,101613.94
2023-05-06T05:14:18.769Z,101614.81
2023-05-06T05:15:21.280Z,101614.81
2023-05-06T05:16:23.752Z,101612.19
2023-05-06T05:17:26.070Z,101618.28
2023-05-06T05:18:29.181Z,101618.28
2023-05-06T05:19:35.086Z,101612.22
2023-05-06T05:20:37.258Z,101615.69
2023-05-06T05:21:40.179Z,101621.75
2023-05-06T05:22:43.996Z,101624.34
2023-05-06T05:23:45.623Z,101622.66
2023-05-06T05:24:47.410Z,101618.31
2023-05-06T05:25:49.067Z,101626.97
2023-05-06T05:26:50.844Z,101613.09
2023-05-06T05:27:53.603Z,101619.16
2023-05-06T05:28:55.271Z,101621.81
2023-05-06T05:29:57.688Z,101627.88
2023-05-06T05:31:06.077Z,101622.69
2023-05-06T05:32:10.695Z,101617.47
2023-05-06T05:33:12.676Z,101623.56
2023-05-06T05:34:15.175Z,101627.03
2023-05-06T05:35:18.481Z,101632.25
2023-05-06T05:36:21.369Z,101628.75
2023-05-06T05:37:25.770Z,101627.03
2023-05-06T05:38:27.720Z,101624.44
2023-05-06T05:39:29.626Z,101632.25
2023-05-06T05:40:31.304Z,101634.03
2023-05-06T05:41:33.067Z,101635.72
2023-05-06T05:42:35.465Z,101636.63
2023-05-06T05:43:42.774Z,101640.09
2023-05-06T05:44:44.499Z,101641.00
2023-05-06T05:45:46.383Z,101638.38
2023-05-06T05:46:48.667Z,101639.25
2023-05-06T05:47:54.607Z,101646.22
2023-05-06T05:48:57.614Z,101641.00
2023-05-06T05:49:59.359Z,101643.59
2023-05-06T05:51:03.714Z,101643.59
2023-05-06T05:52:05.415Z,101641.00
2023-05-06T05:53:07.226Z,101637.50
2023-05-06T05:54:11.186Z,101644.44
2023-05-06T05:55:15.778Z,101646.19
2023-05-06T05:56:19.986Z,101643.59
2023-05-06T05:57:23.493Z,101643.59
2023-05-06T05:58:26.735Z,101647.91
2023-05-06T05:59:33.025Z,101644.47
2023-05-06T06:00:38.321Z,101649.69
2023-05-06T06:01:45.979Z,101643.63
2023-05-06T06:02:48.665Z,101648.81
2023-05-06T06:03:56.342Z,101658.38
2023-05-06T06:04:58.491Z,101652.28
2023-05-06T06:06:01.162Z,101650.56
2023-05-06T06:07:03.330Z,101654.91
2023-05-06T06:08:09.089Z,101657.50
2023-05-06T06:09:11.039Z,101660.94
2023-05-06T06:10:15.412Z,101657.47
2023-05-06T06:11:19.035Z,101660.94
2023-05-06T06:12:20.835Z,101651.41
2023-05-06T06:13:22.704Z,101658.34
2023-05-06T06:14:24.411Z,101663.56
2023-05-06T06:15:26.237Z,101652.28
2023-05-06T06:16:29.451Z,101659.25
2023-05-06T06:17:31.628Z,101663.56
2023-05-06T06:18:33.716Z,101657.50
2023-05-06T06:19:35.584Z,101660.13
2023-05-06T06:20:37.586Z,101661.00
2023-05-06T06:21:39.613Z,101664.47
2023-05-06T06:22:41.534Z,101671.44
2023-05-06T06:23:43.511Z,101663.59
2023-05-06T06:24:45.634Z,101661.88
2023-05-06T06:25:47.517Z,101660.13
2023-05-06T06:26:49.491Z,101667.97
2023-05-06T06:27:51.551Z,101667.06
2023-05-06T06:28:53.226Z,101665.34
2023-05-06T06:29:54.921Z,101665.38
2023-05-06T06:30:56.547Z,101658.41
2023-05-06T06:31:59.150Z,101663.63
2023-05-06T06:33:01.577Z,101665.34
2023-05-06T06:34:08.944Z,101661.88
2023-05-06T06:35:10.744Z,101661.88
2023-05-06T06:36:12.739Z,101669.69
2023-05-06T06:37:16.256Z,101674.91
2023-05-06T06:38:17.997Z,101664.47
2023-05-06T06:39:19.868Z,101667.94
2023-05-06T06:40:22.690Z,101672.28
2023-05-06T06:41:24.592Z,101672.28
2023-05-06T06:42:27.253Z,101675.72
2023-05-06T06:43:43.433Z,101671.38
2023-05-06T06:44:51.543Z,101683.56
2023-05-06T06:45:53.251Z,101678.34
2023-05-06T06:46:55.002Z,101680.94
2023-05-06T06:47:56.856Z,101685.31
2023-05-06T06:48:58.878Z,101676.59
2023-05-06T06:50:00.443Z,101674.91
2023-05-06T06:51:03.590Z,101683.59
2023-05-06T06:52:05.934Z,101680.13
2023-05-06T06:53:07.639Z,101676.66
2023-05-06T06:54:09.376Z,101676.66
2023-05-06T06:55:11.641Z,101676.66
2023-05-06T06:56:13.701Z,101679.28
2023-05-06T06:57:15.316Z,101680.13
2023-05-06T06:58:16.858Z,101676.66
2023-05-06T06:59:18.890Z,101681.03
2023-05-06T07:00:20.514Z,101679.28
2023-05-06T07:01:22.200Z,101670.59
2023-05-06T07:02:23.967Z,101674.97
2023-05-06T07:03:25.627Z,101677.56
2023-05-06T07:04:27.324Z,101683.63
2023-05-06T07:05:31.460Z,101684.50
2023-05-06T07:06:33.107Z,101684.50
2023-05-06T07:07:34.874Z,101681.88
2023-05-06T07:08:36.537Z,101686.22
2023-05-06T07:09:40.186Z,101686.25
2023-05-06T07:10:41.976Z,101691.47
2023-05-06T07:11:43.744Z,101682.75
2023-05-06T07:12:45.683Z,101689.69
2023-05-06T07:13:47.514Z,101694.91
2023-05-06T07:14:49.604Z,101694.91
2023-05-06T07:15:51.218Z,101694.06
2023-05-06T07:16:52.953Z,101690.56
2023-05-06T07:17:54.802Z,101692.28
2023-05-06T07:18:56.580Z,101687.91
2023-05-06T07:19:58.272Z,101693.13
2023-05-06T07:20:59.986Z,101694.00
2023-05-06T07:22:02.924Z,101689.69
2023-05-06T07:23:04.763Z,101690.53
2023-05-06T07:24:06.787Z,101705.34
2023-05-06T07:25:09.473Z,101695.75
2023-05-06T07:26:11.457Z,101687.94
2023-05-06T07:27:13.090Z,101691.44
2023-05-06T07:28:15.632Z,101696.69
2023-05-06T07:29:17.282Z,101697.53
2023-05-06T07:30:21.691Z,101697.56
2023-05-06T07:31:24.799Z,101699.28
2023-05-06T07:32:26.586Z,101700.19
2023-05-06T07:33:28.830Z,101696.72
2023-05-06T07:34:30.638Z,101701.97
2023-05-06T07:35:32.729Z,101702.00
2023-05-06T07:36:40.356Z,101700.25
2023-05-06T07:37:42.568Z,101712.44
2023-05-06T07:38:44.227Z,101711.59
2023-05-06T07:39:46.014Z,101711.56
2023-05-06T07:40:47.887Z,101713.28
2023-05-06T07:41:49.625Z,101714.19
2023-05-06T07:42:51.301Z,101715.06
2023-05-06T07:43:53.056Z,101716.81
2023-05-06T07:44:54.869Z,101718.59
2023-05-06T07:46:02.678Z,101718.59
2023-05-06T07:47:04.595Z,101716.00
2023-05-06T07:48:06.532Z,101718.63
2023-05-06T07:49:08.197Z,101728.19
2023-05-06T07:50:10.545Z,101718.59
2023-05-06T07:51:12.370Z,101719.47
2023-05-06T07:52:16.274Z,101733.38
2023-05-06T07:53:17.952Z,101723.78
2023-05-06T07:54:19.713Z,101731.63
2023-05-06T07:55:21.375Z,101724.72
2023-05-06T07:56:23.069Z,101725.56
2023-05-06T07:57:24.756Z,101729.06
2023-05-06T07:58:26.407Z,101731.69
2023-05-06T07:59:28.005Z,101729.06
2023-05-06T08:00:29.784Z,101729.94
2023-05-06T08:01:31.615Z,101723.84
2023-05-06T08:02:33.362Z,101730.78
2023-05-06T08:03:35.971Z,101728.19
2023-05-06T08:04:37.945Z,101735.16
2023-05-06T08:05:39.770Z,101729.91
2023-05-06T08:06:41.458Z,101727.25
2023-05-06T08:07:43.115Z,101724.66
2023-05-06T08:08:46.588Z,101730.78
2023-05-06T08:09:48.260Z,101722.09
2023-05-06T08:10:49.938Z,101733.41
2023-05-06T08:11:51.538Z,101729.94
2023-05-06T08:12:53.258Z,101734.25
2023-05-06T08:13:54.943Z,101735.13
2023-05-06T08:14:56.583Z,101731.63
2023-05-06T08:15:58.302Z,101736.84
2023-05-06T08:17:00.003Z,101740.34
2023-05-06T08:18:10.349Z,101736.00
2023-05-06T08:19:22.908Z,101741.25
2023-05-06T08:20:24.776Z,101743.88
2023-05-06T08:21:26.566Z,101741.28
2023-05-06T08:22:28.314Z,101743.03
2023-05-06T08:23:31.398Z,101743.06
2023-05-06T08:24:33.244Z,101744.81
2023-05-06T08:25:34.902Z,101747.44
2023-05-06T08:26:36.765Z,101754.41
2023-05-06T08:27:38.448Z,101749.19
2023-05-06T08:28:40.127Z,101757.88
2023-05-06T08:29:41.939Z,101750.03
2023-05-06T08:30:45.940Z,101754.41
2023-05-06T08:31:47.756Z,101761.34
2023-05-06T08:32:49.489Z,101758.72
2023-05-06T08:33:53.864Z,101755.25
2023-05-06T08:34:56.319Z,101757.88
2023-05-06T08:35:58.863Z,101761.38
2023-05-06T08:37:01.355Z,101762.25
2023-05-06T08:38:03.162Z,101763.13
2023-05-06T08:39:05.963Z,101760.50
2023-05-06T08:40:20.417Z,101762.25
2023-05-06T08:41:25.057Z,101764.84
2023-05-06T08:42:30.325Z,101755.28
2023-05-06T08:43:38.642Z,101767.47
2023-05-06T08:44:40.828Z,101775.31
2023-05-06T08:45:42.763Z,101773.56
2023-05-06T08:46:45.888Z,101766.63
2023-05-06T08:47:47.852Z,101775.31
2023-05-06T08:48:49.549Z,101774.47
2023-05-06T08:49:51.678Z,101775.31
2023-05-06T08:50:54.757Z,101774.47
2023-05-06T08:51:57.177Z,101771.84
2023-05-06T08:53:01.616Z,101771.00
2023-05-06T08:54:04.587Z,101776.22
2023-05-06T08:55:07.341Z,101777.13
2023-05-06T08:56:13.602Z,101778.00
2023-05-06T08:57:15.850Z,101777.97
2023-05-06T08:58:18.794Z,101772.75
2023-05-06T08:59:24.923Z,101778.00
2023-05-06T09:00:26.837Z,101783.19
2023-05-06T09:01:29.115Z,101777.06
2023-05-06T09:02:30.858Z,101779.69
2023-05-06T09:03:32.900Z,101776.22
2023-05-06T09:04:35.510Z,101777.09
2023-05-06T09:05:37.179Z,101778.84
2023-05-06T09:06:38.948Z,101775.38
2023-05-06T09:07:40.868Z,101769.28
2023-05-06T09:08:42.741Z,101772.78
2023-05-06T09:09:44.787Z,101778.91
2023-05-06T09:10:47.724Z,101781.50
2023-05-06T09:11:55.086Z,101772.81
2023-05-06T09:12:56.927Z,101772.84
2023-05-06T09:14:18.809Z,101784.13
2023-05-06T09:15:25.103Z,101774.59
2023-05-06T09:16:30.872Z,101778.06
2023-05-06T09:17:33.280Z,101774.59
2023-05-06T09:18:37.234Z,101774.59
2023-05-06T09:19:38.948Z,101774.59
2023-05-06T09:20:45.558Z,101779.81
2023-05-06T09:21:49.055Z,101776.34
2023-05-06T09:22:50.716Z,101774.59
2023-05-06T09:23:52.621Z,101784.19
2023-05-06T09:24:58.905Z,101777.19
2023-05-06T09:26:01.776Z,101772.84
2023-05-06T09:27:03.952Z,101778.97
2023-05-06T09:28:10.574Z,101777.22
2023-05-06T09:29:12.695Z,101778.97
2023-05-06T09:30:15.157Z,101779.88
2023-05-06T09:31:17.439Z,101778.97
2023-05-06T09:32:19.390Z,101779.81
2023-05-06T09:33:21.715Z,101781.59
2023-05-06T09:34:24.601Z,101782.47
2023-05-06T09:35:29.278Z,101792.06
2023-05-06T09:36:31.617Z,101782.47
2023-05-06T09:37:33.222Z,101779.88
2023-05-06T09:38:34.884Z,101787.72
2023-05-06T09:39:36.550Z,101789.47
2023-05-06T09:40:38.858Z,101789.47
2023-05-06T09:41:40.693Z,101795.59
2023-05-06T09:42:43.720Z,101792.97
2023-05-06T09:43:48.385Z,101792.97
2023-05-06T09:44:51.864Z,101792.09
2023-05-06T09:45:54.015Z,101797.31
2023-05-06T09:46:55.885Z,101802.56
2023-05-06T09:47:58.853Z,101799.97
2023-05-06T09:49:00.669Z,101806.91
2023-05-06T09:50:03.908Z,101800.81
2023-05-06T09:51:07.663Z,101802.56
2023-05-06T09:52:09.996Z,101810.41
2023-05-06T09:53:13.588Z,101807.81
2023-05-06T09:54:17.477Z,101810.44
2023-05-06T09:55:20.507Z,101801.72
2023-05-06T09:56:23.614Z,101801.72
2023-05-06T09:57:26.336Z,101807.81
2023-05-06T09:58:29.735Z,101808.72
2023-05-06T09:59:32.782Z,101805.22
2023-05-06T10:00:35.509Z,101805.22
2023-05-06T10:01:38.903Z,101807.84
2023-05-06T10:02:41.650Z,101798.25
2023-05-06T10:03:45.986Z,101808.72
2023-05-06T10:04:49.943Z,101805.25
2023-05-06T10:05:56.945Z,101813.06
2023-05-06T10:07:00.898Z,101805.25
2023-05-06T10:08:04.471Z,101802.63
2023-05-06T10:09:07.680Z,101801.72
2023-05-06T10:10:11.606Z,101806.09
2023-05-06T10:11:14.672Z,101801.72
2023-05-06T10:12:16.530Z,101803.47
2023-05-06T10:13:20.650Z,101807.81
2023-05-06T10:14:22.550Z,101797.41
2023-05-06T10:15:25.914Z,101800.88
2023-05-06T10:16:28.592Z,101802.63
2023-05-06T10:17:31.776Z,101800.88
2023-05-06T10:18:37.008Z,101803.47
2023-05-06T10:19:44.957Z,101802.63
2023-05-06T10:20:48.642Z,101797.41
2023-05-06T10:21:57.948Z,101803.53
2023-05-06T10:23:30.237Z,101798.28
2023-05-06T10:24:36.852Z,101802.63
2023-05-06T10:25:43.777Z,101802.63
2023-05-06T10:26:46.770Z,101808.72
2023-05-06T10:27:48.950Z,101802.59
2023-05-06T10:28:53.576Z,101810.41
2023-05-06T10:29:59.453Z,101803.44
2023-05-06T10:31:04.721Z,101802.59
2023-05-06T10:32:09.325Z,101806.06
2023-05-06T10:33:12.226Z,101802.56
2023-05-06T10:34:16.499Z,101807.81
2023-05-06T10:35:47.400Z,101808.72
2023-05-06T10:36:53.507Z,101810.41
2023-05-06T10:37:56.507Z,101812.16
2023-05-06T10:39:03.655Z,101804.34
2023-05-06T10:40:06.781Z,101813.94
2023-05-06T10:41:09.679Z,101804.34
2023-05-06T10:42:11.483Z,101808.72
2023-05-06T10:43:30.859Z,101807.84
2023-05-06T10:44:57.633Z,101813.94
2023-05-06T10:46:05.498Z,101816.53
2023-05-06T10:47:09.082Z,101807.81
2023-05-06T10:48:10.754Z,101805.19
2023-05-06T10:49:13.809Z,101808.72
2023-05-06T10:50:26.401Z,101808.72
2023-05-06T10:51:28.805Z,101806.97
2023-05-06T10:52:46.667Z,101805.25
2023-05-06T10:53:59.891Z,101801.78
2023-05-06T10:55:01.469Z,101802.63
2023-05-06T10:56:09.498Z,101811.38
2023-05-06T10:57:11.469Z,101807.84
2023-05-06T10:58:15.045Z,101807.84
2023-05-06T10:59:24.530Z,101806.13
2023-05-06T11:00:26.531Z,101813.09
2023-05-06T11:01:28.471Z,101813.97
2023-05-06T11:02:30.969Z,101811.38
2023-05-06T11:03:32.792Z,101807.88
2023-05-06T11:04:35.440Z,101815.72
2023-05-06T11:05:50.218Z,101821.84
2023-05-06T11:06:53.612Z,101810.53
2023-05-06T11:08:09.109Z,101814.00
2023-05-06T11:09:17.901Z,101814.00
2023-05-06T11:10:32.858Z,101815.75
2023-05-06T11:11:57.747Z,101817.50
2023-05-06T11:13:19.373Z,101808.78
2023-05-06T11:14:30.832Z,101816.63
2023-05-06T11:15:40.420Z,101811.38
2023-05-06T11:16:49.516Z,101816.63
2023-05-06T11:17:52.517Z,101814.88
2023-05-06T11:18:55.092Z,101810.53
2023-05-06T11:20:19.763Z,101822.72
2023-05-06T11:21:21.353Z,101817.47
2023-05-06T11:22:39.107Z,101813.13
2023-05-06T11:23:52.444Z,101821.84
2023-05-06T11:24:54.816Z,101816.63
2023-05-06T11:25:58.720Z,101815.75
2023-05-06T11:27:00.499Z,101812.25
2023-05-06T11:28:07.590Z,101822.75
2023-05-06T11:29:09.352Z,101818.38
2023-05-06T11:30:14.514Z,101817.50
2023-05-06T11:31:16.657Z,101823.59
2023-05-06T11:32:23.081Z,101827.09
2023-05-06T11:33:31.172Z,101826.22
2023-05-06T11:34:35.270Z,101825.34
2023-05-06T11:35:37.675Z,101823.63
2023-05-06T11:36:51.536Z,101827.97
2023-05-06T11:37:53.238Z,101826.25
2023-05-06T11:38:56.374Z,101819.25
2023-05-06T11:39:57.943Z,101832.34
2023-05-06T11:41:01.005Z,101826.22
2023-05-06T11:42:06.682Z,101826.25
2023-05-06T11:43:15.129Z,101830.59
2023-05-06T11:44:27.900Z,101827.09
2023-05-06T11:45:46.582Z,101827.97
2023-05-06T11:46:48.077Z,101827.09
2023-05-06T11:47:54.571Z,101820.13
2023-05-06T11:48:56.405Z,101830.56
2023-05-06T11:49:59.027Z,101827.09
2023-05-06T11:51:00.824Z,101833.22
2023-05-06T11:52:03.341Z,101825.38
2023-05-06T11:53:05.057Z,101821.00
2023-05-06T11:54:08.973Z,101827.13
2023-05-06T11:55:11.829Z,101828.88
2023-05-06T11:56:14.611Z,101829.75
2023-05-06T11:57:16.550Z,101825.38
2023-05-06T11:58:21.196Z,101827.97
2023-05-06T11:59:30.353Z,101833.22
2023-05-06T12:00:31.982Z,101825.41
2023-05-06T12:01:33.641Z,101828.00
2023-05-06T12:02:35.349Z,101828.88
2023-05-06T12:03:37.137Z,101836.72
2023-05-06T12:04:46.886Z,101834.97
2023-05-06T12:05:49.878Z,101833.22
2023-05-06T12:06:51.686Z,101840.19
2023-05-06T12:07:53.520Z,101840.19
2023-05-06T12:08:55.249Z,101841.94
2023-05-06T12:09:59.012Z,101851.53
2023-05-06T12:11:09.027Z,101847.16